San Rafael, CA (94903)

5:43 AM PST on February 08, 2016 (GMT -0800)
Venetia Valley K-8 School | | Change Station
CLOSE
Current Station
Personal Weather Station
Location: San Rafael, CA
Elevation: 23 ft
Nearby Weather Stations

Elev 23 ft 38.00 °N, 122.53 °W | Updated 12 seconds ago

Clear
Clear
49.9 °F
Feels Like 50 °F
N
0.0
Wind Variable Wind from WSW
Gusts 3.0 mph

Today
High -- | Low -- °F
--% Chance of Precip.
Yesterday
High -- | Low -- °F
Precip. -- in
Pressure 30.23 in
Visibility 10.0 miles
Clouds Clear
Windchill 50 °F
Dew Point 46 °F
Humidity 85%
Rainfall 0.00 in
Snow Depth Not available.
7:08 AM 5:40 PM
Waning Crescent, 0% visible
METAR KO69 081335Z AUTO 11004KT 10SM CLR 10/09 A3023 RMK AO1
Pressure 30.23 in
Visibility 10.0 miles
Clouds Clear
Windchill 50 °F
Dew Point 46 °F
Humidity 85%
Rainfall 0.00 in
Snow Depth Not available.
7:08 AM 5:40 PM
Waning Crescent, 0% visible
METAR KO69 081335Z AUTO 11004KT 10SM CLR 10/09 A3023 RMK AO1

10-Day Weather Forecast

Almanac

Astronomy

Feb. 08, 2016 Rise Set
Actual Time
Civil Twilight
Nautical Twilight
Astronomical Twilight
Moon
Length of Visible Light
Length of Day
Tomorrow will be .
, % of the Moon is Illuminated

Today's Extremes

State Highs State Lows

Community

WunderPhotos

Upload Photos

1,891,437 photos uploaded!

WunderBlog® & News

Nearby

Air Quality

  Air Quality AQ Index Pollutant
Not available.

Snow Depth

Station Depth Elevation

Earthquake Activity

City Distance Mag. Time & Date
Minimum magnitude displayed is 2.5.

Coastal Water Temperatures

Place Temperature

Stations

Nearby Weather Stations

Station Location Temp. Windchill Dew Point Humidity Wind Precip. Elev Updated Type
                   

Watches & Warnings

There are currently no watches in effect.